Time;durP1;ratioP1;P1;durP2;ratioP2;P2;SDS_P1;SDS_P2;PMS_P1;PMS_P2;Temp;Humidity;BMP_temperature;BMP_pressure;BME280_temperature;BME280_humidity;BME280_pressure;Samples;Min_cycle;Max_cycle;Signal;HPM_P1;HPM_P2
2021/08/12 00:01:59;;;;;;;9.88;6.40;;;18.10;81.50;;;;;;5004171;28;20071;-84
2021/08/12 00:04:25;;;;;;;7.78;6.28;;;18.10;81.50;;;;;;5010466;28;20432;-84
2021/08/12 00:06:50;;;;;;;7.53;6.32;;;18.00;82.30;;;;;;5008224;28;20348;-84
2021/08/12 00:09:16;;;;;;;5.00;4.47;;;17.90;82.90;;;;;;5006957;28;20117;-84
2021/08/12 00:11:41;;;;;;;8.65;6.07;;;17.80;83.10;;;;;;5013318;28;20033;-84
2021/08/12 00:14:07;;;;;;;11.80;6.45;;;17.80;82.70;;;;;;4999895;28;20517;-84
2021/08/12 00:16:32;;;;;;;14.90;6.70;;;17.70;83.20;;;;;;4993974;28;20037;-85
2021/08/12 00:18:58;;;;;;;8.60;6.68;;;17.70;83.70;;;;;;5000104;28;20086;-84
2021/08/12 00:21:24;;;;;;;10.18;6.82;;;17.60;84.40;;;;;;4992607;28;20042;-84
2021/08/12 00:23:50;;;;;;;7.47;5.70;;;17.60;83.60;;;;;;5008521;28;20025;-83
2021/08/12 00:26:16;;;;;;;8.88;5.22;;;17.60;83.30;;;;;;5001720;28;20041;-81
2021/08/12 00:28:41;;;;;;;9.30;7.18;;;17.60;83.90;;;;;;4997084;28;20036;-85
2021/08/12 00:31:07;;;;;;;6.53;5.82;;;17.50;84.40;;;;;;5006235;28;20113;-85
2021/08/12 00:33:34;;;;;;;5.13;4.03;;;17.50;84.40;;;;;;4994045;28;20494;-85
2021/08/12 00:36:00;;;;;;;8.20;6.28;;;17.40;83.80;;;;;;5006013;28;20030;-83
2021/08/12 00:38:25;;;;;;;10.13;6.90;;;17.40;84.10;;;;;;5006739;28;20260;-85
2021/08/12 00:40:51;;;;;;;8.85;5.65;;;17.30;84.40;;;;;;4993427;28;20030;-85
2021/08/12 00:43:17;;;;;;;13.65;7.53;;;17.30;84.40;;;;;;4993925;28;20029;-85
2021/08/12 00:45:42;;;;;;;9.05;7.00;;;17.20;85.10;;;;;;4998954;28;20112;-84
2021/08/12 00:48:08;;;;;;;15.73;7.00;;;17.10;85.00;;;;;;5014547;28;20469;-86
2021/08/12 00:50:33;;;;;;;5.75;4.68;;;17.10;84.90;;;;;;4995371;28;20033;-86
2021/08/12 00:53:00;;;;;;;7.60;6.38;;;17.10;84.60;;;;;;4997813;28;20157;-85
2021/08/12 00:55:26;;;;;;;4.47;3.75;;;17.10;84.20;;;;;;4990993;28;20124;-85
2021/08/12 00:57:51;;;;;;;6.25;4.78;;;17.10;84.30;;;;;;4993017;28;20500;-85
2021/08/12 01:00:17;;;;;;;5.32;4.70;;;17.10;84.20;;;;;;5003305;28;20474;-86
2021/08/12 01:02:42;;;;;;;12.07;6.13;;;17.10;84.20;;;;;;4976080;28;20033;-86
2021/08/12 01:05:09;;;;;;;9.27;6.60;;;17.00;85.00;;;;;;4995381;28;20093;-86
2021/08/12 01:07:55;;;;;;;10.40;6.65;;;16.80;84.70;;;;;;4991839;28;20497;-86
2021/08/12 01:10:21;;;;;;;;;;;16.80;85.40;;;;;;4993184;28;20092;-84
2021/08/12 01:12:53;;;;;;;4.97;4.45;;;16.60;85.90;;;;;;4997852;28;19909;-86
2021/08/12 01:15:23;;;;;;;5.10;4.18;;;16.60;86.10;;;;;;4996895;28;20035;-83
2021/08/12 01:17:54;;;;;;;5.07;4.20;;;16.60;85.50;;;;;;4995290;28;20492;-85
2021/08/12 01:20:23;;;;;;;6.38;4.70;;;16.60;85.50;;;;;;4988126;28;20034;-85
2021/08/12 01:22:49;;;;;;;6.57;4.18;;;16.80;85.90;;;;;;5006130;28;20030;-86
2021/08/12 01:25:23;;;;;;;6.10;4.90;;;16.80;85.00;;;;;;4993219;28;20041;-85
2021/08/12 01:27:50;;;;;;;6.72;5.43;;;16.80;85.10;;;;;;5010951;28;20033;-85
2021/08/12 01:30:27;;;;;;;6.63;4.70;;;16.70;86.20;;;;;;4981806;28;20044;-86
2021/08/12 01:33:25;;;;;;;5.22;4.72;;;16.70;86.50;;;;;;5008056;28;20029;-85
2021/08/12 01:35:51;;;;;;;8.18;5.35;;;16.80;86.90;;;;;;5020321;28;20489;-85
2021/08/12 01:38:24;;;;;;;11.80;6.53;;;16.80;86.50;;;;;;5012652;28;20029;-86
2021/08/12 01:40:50;;;;;;;7.40;4.88;;;16.60;86.20;;;;;;5000621;28;20034;-84
2021/08/12 01:43:16;;;;;;;9.23;7.07;;;16.60;86.60;;;;;;5008424;28;20108;-84
2021/08/12 01:45:53;;;;;;;10.20;6.30;;;16.60;87.10;;;;;;5008072;28;20033;-83
2021/08/12 01:48:19;;;;;;;10.77;6.32;;;16.40;86.50;;;;;;4992730;28;20516;-85
2021/08/12 01:50:45;;;;;;;7.05;5.55;;;16.40;86.70;;;;;;4995672;28;20038;-86
2021/08/12 01:53:11;;;;;;;5.90;5.00;;;16.30;87.10;;;;;;4996691;28;20040;-85
2021/08/12 01:55:37;;;;;;;6.15;4.60;;;16.30;87.10;;;;;;5004227;28;20059;-86
2021/08/12 01:58:03;;;;;;;5.25;4.20;;;16.40;87.10;;;;;;5004312;28;20075;-84
2021/08/12 02:00:30;;;;;;;8.65;5.30;;;16.40;86.70;;;;;;4995123;28;20091;-82
2021/08/12 02:02:56;;;;;;;7.65;5.22;;;16.30;87.20;;;;;;5009018;28;20032;-85
2021/08/12 02:05:21;;;;;;;11.43;6.95;;;16.30;87.90;;;;;;5008028;28;20425;-84
2021/08/12 02:07:47;;;;;;;10.60;6.88;;;16.20;87.20;;;;;;4991104;28;20033;-84
2021/08/12 02:10:13;;;;;;;6.97;5.88;;;16.20;88.10;;;;;;5006614;28;20095;-85
2021/08/12 02:12:39;;;;;;;10.38;7.15;;;16.10;87.50;;;;;;4997421;28;20033;-84
2021/08/12 02:15:05;;;;;;;9.32;6.90;;;15.90;87.60;;;;;;5013992;28;20102;-84
2021/08/12 02:17:30;;;;;;;8.25;7.45;;;15.90;87.70;;;;;;5009081;28;20084;-84
2021/08/12 02:19:56;;;;;;;7.13;6.43;;;15.80;88.30;;;;;;4994926;28;20421;-85
2021/08/12 02:22:23;;;;;;;10.10;7.38;;;15.70;88.50;;;;;;5024261;28;20033;-85
2021/08/12 02:25:02;;;;;;;8.45;7.20;;;15.80;88.50;;;;;;5000676;28;20029;-84
2021/08/12 02:27:27;;;;;;;8.35;7.53;;;15.60;89.20;;;;;;4997172;28;20380;-85
2021/08/12 02:29:53;;;;;;;8.98;6.90;;;15.70;90.00;;;;;;4998054;28;20039;-83
2021/08/12 02:32:19;;;;;;;10.20;7.82;;;15.60;89.50;;;;;;5021528;28;20117;-83
2021/08/12 02:34:45;;;;;;;10.15;8.68;;;15.60;89.40;;;;;;4997032;28;20520;-85
2021/08/12 02:37:11;;;;;;;6.32;5.20;;;15.60;89.10;;;;;;4999734;28;20028;-86
2021/08/12 02:39:37;;;;;;;5.68;4.32;;;15.60;89.20;;;;;;5013638;28;20040;-84
2021/08/12 02:42:03;;;;;;;8.98;6.05;;;15.70;89.80;;;;;;5009422;28;20025;-86
2021/08/12 02:44:29;;;;;;;6.65;5.60;;;15.70;89.10;;;;;;4999100;28;20037;-85
2021/08/12 02:46:56;;;;;;;8.23;4.68;;;15.70;90.40;;;;;;5014199;28;20033;-86
2021/08/12 02:49:22;;;;;;;6.22;5.13;;;15.80;89.90;;;;;;4999066;28;20049;-85
2021/08/12 02:51:48;;;;;;;6.68;4.95;;;15.80;89.70;;;;;;4998144;28;20398;-85
2021/08/12 02:54:14;;;;;;;8.90;6.18;;;15.60;89.20;;;;;;5008728;28;20033;-85
2021/08/12 02:56:39;;;;;;;6.68;5.63;;;15.60;90.10;;;;;;4994386;28;20036;-85
2021/08/12 02:59:05;;;;;;;7.18;4.63;;;15.60;90.50;;;;;;5011995;28;20132;-85
2021/08/12 03:01:30;;;;;;;8.43;6.75;;;15.70;90.00;;;;;;5003274;28;20037;-86
2021/08/12 03:03:56;;;;;;;9.13;7.35;;;15.60;89.70;;;;;;4997071;28;20034;-85
2021/08/12 03:06:22;;;;;;;7.13;5.20;;;15.50;90.40;;;;;;4998301;28;20087;-85
2021/08/12 03:08:48;;;;;;;8.73;7.13;;;15.50;90.30;;;;;;5009027;28;20225;-85
2021/08/12 03:11:18;;;;;;;9.95;7.60;;;15.50;90.30;;;;;;5014948;28;20041;-84
2021/08/12 03:13:44;;;;;;;10.13;8.18;;;15.40;90.60;;;;;;4997010;28;21071;-84
2021/08/12 03:16:09;;;;;;;10.60;8.45;;;15.30;90.70;;;;;;4997831;28;20048;-84
2021/08/12 03:18:35;;;;;;;7.07;6.05;;;15.30;90.70;;;;;;4994007;28;20029;-86
2021/08/12 03:21:07;;;;;;;6.68;5.47;;;15.40;90.90;;;;;;5006371;28;20849;-86
2021/08/12 03:23:33;;;;;;;8.27;7.13;;;15.60;91.00;;;;;;4993040;28;20030;-85
2021/08/12 03:25:59;;;;;;;6.85;5.30;;;15.50;90.90;;;;;;4997663;28;20032;-85
2021/08/12 03:28:24;;;;;;;10.18;6.05;;;15.40;91.30;;;;;;4992021;28;20029;-83
2021/08/12 03:30:50;;;;;;;6.45;5.70;;;15.40;91.60;;;;;;4995093;28;20120;-85
2021/08/12 03:33:15;;;;;;;6.60;4.97;;;15.40;91.60;;;;;;4995194;28;20153;-85
2021/08/12 03:35:41;;;;;;;12.95;7.53;;;15.40;91.40;;;;;;5012936;28;20052;-82
2021/08/12 03:38:06;;;;;;;9.23;5.93;;;15.40;91.30;;;;;;5016228;28;20047;-85
2021/08/12 03:40:32;;;;;;;6.40;5.72;;;15.30;91.90;;;;;;5008685;28;20026;-83
2021/08/12 03:42:57;;;;;;;7.10;5.57;;;15.30;91.80;;;;;;5003122;28;20406;-84
2021/08/12 03:45:23;;;;;;;5.78;4.90;;;15.30;91.50;;;;;;5006100;28;20053;-85
2021/08/12 03:47:48;;;;;;;10.45;7.53;;;15.20;91.40;;;;;;5014310;28;20045;-84
2021/08/12 03:50:16;;;;;;;8.98;7.07;;;15.00;91.80;;;;;;4999248;28;20120;-85
2021/08/12 03:52:41;;;;;;;7.68;5.70;;;15.00;91.60;;;;;;4994751;28;20034;-85
2021/08/12 03:55:08;;;;;;;11.63;8.10;;;15.00;92.20;;;;;;4992118;28;20144;-83
2021/08/12 03:57:33;;;;;;;11.20;7.53;;;15.10;91.50;;;;;;4994781;28;20067;-83
2021/08/12 03:59:59;;;;;;;8.48;7.00;;;15.10;92.00;;;;;;5004318;28;20034;-84
2021/08/12 04:02:24;;;;;;;12.63;7.20;;;15.00;91.80;;;;;;4997671;28;20482;-84
2021/08/12 04:04:50;;;;;;;9.25;6.93;;;15.10;92.70;;;;;;5008894;28;20025;-82
2021/08/12 04:07:15;;;;;;;9.20;6.07;;;15.20;92.30;;;;;;4990922;28;20038;-84
2021/08/12 04:09:41;;;;;;;10.25;7.35;;;15.20;92.20;;;;;;4994084;28;20029;-83
2021/08/12 04:12:06;;;;;;;6.60;5.35;;;15.10;92.60;;;;;;5015192;28;20033;-83
2021/08/12 04:14:32;;;;;;;7.18;5.70;;;15.10;92.40;;;;;;5012867;28;20386;-84
2021/08/12 04:16:57;;;;;;;11.82;6.60;;;15.10;92.40;;;;;;5009971;28;20040;-85
2021/08/12 04:19:25;;;;;;;9.18;7.00;;;15.10;92.70;;;;;;5024385;28;20136;-83
2021/08/12 04:21:50;;;;;;;7.15;5.60;;;15.10;92.20;;;;;;5007079;28;20121;-85
2021/08/12 04:24:16;;;;;;;7.93;5.32;;;15.10;93.00;;;;;;4998992;28;20059;-83
2021/08/12 04:26:41;;;;;;;8.32;6.30;;;15.10;92.50;;;;;;5026204;28;20549;-84
2021/08/12 04:29:07;;;;;;;8.88;6.25;;;15.10;92.90;;;;;;5008834;28;20116;-84
2021/08/12 04:31:32;;;;;;;9.98;7.45;;;15.00;92.80;;;;;;5000381;28;20041;-84
2021/08/12 04:33:58;;;;;;;10.40;7.97;;;15.00;92.70;;;;;;4991346;28;20056;-84
2021/08/12 04:36:23;;;;;;;10.73;8.38;;;15.00;92.60;;;;;;4998145;28;20128;-84
2021/08/12 04:38:49;;;;;;;10.52;8.77;;;14.90;92.50;;;;;;5009165;28;20111;-84
2021/08/12 04:41:15;;;;;;;13.63;9.40;;;14.90;93.60;;;;;;4993867;28;20112;-83
2021/08/12 04:43:40;;;;;;;11.52;8.77;;;14.70;93.50;;;;;;5006342;28;20025;-84
2021/08/12 04:46:06;;;;;;;12.15;9.50;;;14.70;93.20;;;;;;5010342;28;20428;-83
2021/08/12 04:48:32;;;;;;;10.00;8.75;;;14.70;93.60;;;;;;4999383;28;20088;-83
2021/08/12 04:50:57;;;;;;;14.43;10.15;;;14.80;93.60;;;;;;5014703;28;20121;-84
2021/08/12 04:53:23;;;;;;;11.55;9.98;;;14.80;93.40;;;;;;4969592;28;20080;-83
2021/08/12 04:55:48;;;;;;;14.05;10.07;;;14.80;93.60;;;;;;4990246;28;20117;-83
2021/08/12 04:58:15;;;;;;;15.32;9.68;;;14.90;93.50;;;;;;5008400;28;20107;-83
2021/08/12 05:00:41;;;;;;;11.15;5.97;;;14.90;93.30;;;;;;5011428;28;20572;-84
2021/08/12 05:03:06;;;;;;;11.38;8.30;;;15.10;93.40;;;;;;5011829;28;20029;-82
2021/08/12 05:05:32;;;;;;;8.35;6.70;;;15.40;93.30;;;;;;5007954;28;20103;-83
2021/08/12 05:07:58;;;;;;;10.32;6.22;;;15.40;93.10;;;;;;5003936;28;20033;-81
2021/08/12 05:10:24;;;;;;;6.25;5.32;;;15.30;92.70;;;;;;4992354;28;20036;-84
2021/08/12 05:12:51;;;;;;;10.27;8.23;;;15.30;93.00;;;;;;4990262;28;20048;-83
2021/08/12 05:15:17;;;;;;;14.27;8.82;;;15.30;92.80;;;;;;4991156;28;20386;-84
2021/08/12 05:17:42;;;;;;;11.85;9.15;;;15.30;92.80;;;;;;4991230;28;20055;-84
2021/08/12 05:20:08;;;;;;;9.13;7.55;;;15.30;93.30;;;;;;5006396;28;20045;-84
2021/08/12 05:22:34;;;;;;;14.90;7.30;;;15.30;93.20;;;;;;5010147;28;20488;-84
2021/08/12 05:24:59;;;;;;;9.30;6.07;;;15.40;93.00;;;;;;4993321;28;20040;-84
2021/08/12 05:27:25;;;;;;;9.77;6.07;;;15.50;92.70;;;;;;5006083;28;20041;-84
2021/08/12 05:29:50;;;;;;;7.82;6.43;;;15.60;92.90;;;;;;4994081;28;20040;-83
2021/08/12 05:32:16;;;;;;;14.25;9.27;;;15.60;93.00;;;;;;4996973;28;20381;-83
2021/08/12 05:34:42;;;;;;;9.63;8.20;;;15.60;93.00;;;;;;5009958;28;20060;-84
2021/08/12 05:37:07;;;;;;;14.65;10.43;;;15.60;93.00;;;;;;5010890;28;20408;-84
2021/08/12 05:39:33;;;;;;;13.82;10.75;;;15.60;92.60;;;;;;4976668;28;20033;-84
2021/08/12 05:41:58;;;;;;;9.80;6.38;;;15.70;92.50;;;;;;5007891;28;20046;-84
2021/08/12 05:44:24;;;;;;;14.40;10.80;;;15.90;92.80;;;;;;5021306;28;20033;-84
2021/08/12 05:46:50;;;;;;;15.82;11.57;;;15.90;92.80;;;;;;4995554;28;20143;-84
2021/08/12 05:49:15;;;;;;;13.05;10.23;;;16.00;94.80;;;;;;4990757;28;20060;-84
2021/08/12 05:51:41;;;;;;;7.00;6.32;;;16.00;93.30;;;;;;4974584;28;20512;-84
2021/08/12 05:54:06;;;;;;;14.45;10.73;;;16.20;93.30;;;;;;5005769;28;20112;-83
2021/08/12 05:56:32;;;;;;;15.52;8.88;;;16.30;93.30;;;;;;4988163;28;20041;-84
2021/08/12 05:58:58;;;;;;;15.07;10.32;;;16.50;92.80;;;;;;5011813;28;20034;-85
2021/08/12 06:01:23;;;;;;;15.02;10.50;;;16.50;92.90;;;;;;5007443;28;20497;-83
2021/08/12 06:03:49;;;;;;;10.15;7.95;;;16.50;92.80;;;;;;4992074;28;20441;-82
2021/08/12 06:06:15;;;;;;;6.38;4.95;;;16.60;92.60;;;;;;4987284;28;20033;-84
2021/08/12 06:08:40;;;;;;;8.07;6.85;;;16.70;92.10;;;;;;4994648;28;20037;-83
2021/08/12 06:11:06;;;;;;;12.60;9.77;;;16.80;92.40;;;;;;4998821;28;20522;-84
2021/08/12 06:13:32;;;;;;;8.18;7.05;;;16.90;92.80;;;;;;4994628;28;20129;-84
2021/08/12 06:15:59;;;;;;;12.15;9.57;;;17.00;92.60;;;;;;5010663;28;20038;-84
2021/08/12 06:18:24;;;;;;;9.15;6.55;;;17.20;92.60;;;;;;4990410;28;20046;-84
2021/08/12 06:20:50;;;;;;;17.20;8.95;;;17.30;92.50;;;;;;4991073;28;20056;-84
2021/08/12 06:23:15;;;;;;;15.77;10.27;;;17.50;92.20;;;;;;4994862;28;20112;-83
2021/08/12 06:25:41;;;;;;;12.63;10.20;;;17.60;92.10;;;;;;4992645;28;20481;-85
2021/08/12 06:28:06;;;;;;;17.10;9.98;;;17.90;92.90;;;;;;5005867;28;20033;-83
2021/08/12 06:30:32;;;;;;;16.70;11.00;;;18.10;92.80;;;;;;4992317;28;20041;-83
2021/08/12 06:32:58;;;;;;;20.67;9.73;;;18.30;92.80;;;;;;4977186;28;20037;-84
2021/08/12 06:35:23;;;;;;;14.20;10.77;;;18.40;92.80;;;;;;5011760;28;20029;-85
2021/08/12 06:37:50;;;;;;;8.45;6.68;;;18.70;93.30;;;;;;5008352;28;20036;-84
2021/08/12 06:40:20;;;;;;;14.85;10.43;;;18.80;92.50;;;;;;4991445;28;20097;-81
2021/08/12 06:42:46;;;;;;;14.43;10.95;;;18.90;91.80;;;;;;4990725;28;20041;-85
2021/08/12 06:45:12;;;;;;;14.10;9.68;;;19.00;92.20;;;;;;4988763;28;20507;-84
2021/08/12 06:47:38;;;;;;;12.23;9.52;;;19.10;92.00;;;;;;5009441;28;21343;-84
2021/08/12 06:50:04;;;;;;;12.75;8.30;;;19.20;91.60;;;;;;5012936;28;20040;-81
2021/08/12 06:52:29;;;;;;;8.85;7.05;;;19.40;91.40;;;;;;4996789;28;20119;-84
2021/08/12 06:54:55;;;;;;;9.55;6.78;;;19.50;91.00;;;;;;4991739;28;20033;-84
2021/08/12 06:57:20;;;;;;;14.50;9.63;;;19.50;90.50;;;;;;4993606;28;20041;-85
2021/08/12 06:59:46;;;;;;;13.13;10.50;;;19.70;92.40;;;;;;4993906;28;20113;-84
2021/08/12 07:02:12;;;;;;;11.30;7.25;;;19.90;91.40;;;;;;5006592;28;20090;-84
2021/08/12 07:04:37;;;;;;;9.85;7.97;;;20.00;91.30;;;;;;4996345;28;20042;-84
2021/08/12 07:07:03;;;;;;;13.43;9.93;;;20.00;90.80;;;;;;5008881;28;20044;-85
2021/08/12 07:09:29;;;;;;;14.15;9.48;;;20.10;91.60;;;;;;5005770;28;20121;-84
2021/08/12 07:11:54;;;;;;;11.63;8.80;;;20.20;90.80;;;;;;5008192;28;20059;-85
2021/08/12 07:14:20;;;;;;;15.52;8.57;;;20.30;90.50;;;;;;5009590;28;20119;-85
2021/08/12 07:16:45;;;;;;;7.68;5.47;;;20.20;90.30;;;;;;4997580;28;20029;-85
2021/08/12 07:19:11;;;;;;;13.95;10.02;;;20.30;90.00;;;;;;5010680;28;20025;-84
2021/08/12 07:21:41;;;;;;;10.57;6.32;;;20.40;90.20;;;;;;5011943;28;20141;-86
2021/08/12 07:24:08;;;;;;;8.95;6.40;;;20.50;90.10;;;;;;5000382;28;20366;-85
2021/08/12 07:26:33;;;;;;;12.73;9.73;;;20.50;89.80;;;;;;5011326;28;20076;-86
2021/08/12 07:28:59;;;;;;;9.73;6.93;;;20.60;90.10;;;;;;5010466;28;20445;-85
2021/08/12 07:31:24;;;;;;;12.00;9.63;;;20.70;89.20;;;;;;5023372;28;20060;-86
2021/08/12 07:33:50;;;;;;;9.82;7.05;;;20.90;91.20;;;;;;4993896;28;20140;-87
2021/08/12 07:36:16;;;;;;;13.73;10.02;;;21.10;89.50;;;;;;5014250;28;20074;-86
2021/08/12 07:38:41;;;;;;;12.10;9.45;;;21.30;91.80;;;;;;4998172;28;20079;-87
2021/08/12 07:41:07;;;;;;;16.17;9.50;;;21.60;92.10;;;;;;4996543;28;20095;-86
2021/08/12 07:43:32;;;;;;;13.95;8.68;;;21.90;91.90;;;;;;4994107;28;20393;-87
2021/08/12 07:45:58;;;;;;;12.75;8.60;;;22.00;91.90;;;;;;5001645;28;20025;-87
2021/08/12 07:48:24;;;;;;;6.63;5.28;;;22.20;91.80;;;;;;4996526;28;20137;-85
2021/08/12 07:50:49;;;;;;;8.93;7.30;;;22.20;90.20;;;;;;4995673;28;20037;-85
2021/08/12 07:53:15;;;;;;;13.10;8.60;;;22.50;89.90;;;;;;4990454;28;20504;-85
2021/08/12 07:55:40;;;;;;;8.07;6.82;;;22.70;91.50;;;;;;4992883;28;20026;-85
2021/08/12 07:58:06;;;;;;;9.02;5.78;;;22.80;90.20;;;;;;5003963;28;20025;-82
2021/08/12 08:00:32;;;;;;;8.23;6.35;;;22.90;91.00;;;;;;5001445;28;20547;-86
2021/08/12 08:02:57;;;;;;;8.93;6.68;;;23.00;88.90;;;;;;4997696;28;20129;-86
2021/08/12 08:05:24;;;;;;;10.68;6.57;;;23.10;91.40;;;;;;5009625;28;20087;-85
2021/08/12 08:07:50;;;;;;;10.35;6.57;;;23.30;88.40;;;;;;5010825;28;20055;-85
2021/08/12 08:10:24;;;;;;;6.80;5.47;;;23.40;90.00;;;;;;5013193;28;20053;-85
2021/08/12 08:12:50;;;;;;;8.20;6.07;;;23.50;90.20;;;;;;4997633;28;20069;-85
2021/08/12 08:15:16;;;;;;;5.43;4.72;;;23.60;90.60;;;;;;4995299;28;20068;-84
2021/08/12 08:17:42;;;;;;;8.95;5.50;;;23.80;88.70;;;;;;4993129;28;20037;-85
2021/08/12 08:20:08;;;;;;;9.23;5.35;;;24.10;90.10;;;;;;4996541;28;20033;-86
2021/08/12 08:22:34;;;;;;;10.27;6.10;;;24.30;88.70;;;;;;4996792;28;20354;-86
2021/08/12 08:25:00;;;;;;;6.70;5.05;;;24.30;87.90;;;;;;5001391;28;20033;-85
2021/08/12 08:27:25;;;;;;;7.97;5.65;;;24.40;87.50;;;;;;4992622;28;20033;-84
2021/08/12 08:29:54;;;;;;;7.47;5.82;;;24.50;88.60;;;;;;4986701;28;20030;-85
2021/08/12 08:32:19;;;;;;;8.98;7.78;;;24.60;90.10;;;;;;4995578;28;20289;-85
2021/08/12 08:34:46;;;;;;;6.00;4.60;;;24.50;87.30;;;;;;4995927;28;20083;-85
2021/08/12 08:37:11;;;;;;;10.38;6.70;;;24.50;87.00;;;;;;5003874;28;20037;-83
2021/08/12 08:39:37;;;;;;;10.23;4.38;;;24.60;90.40;;;;;;4995297;28;20041;-87
2021/08/12 08:42:03;;;;;;;7.75;4.97;;;24.60;86.40;;;;;;4993110;28;20030;-87
2021/08/12 08:44:29;;;;;;;7.03;5.30;;;24.60;87.10;;;;;;4992781;28;20040;-87
2021/08/12 08:46:55;;;;;;;9.07;5.18;;;24.90;87.40;;;;;;4992027;28;20432;-86
2021/08/12 08:49:21;;;;;;;5.68;4.75;;;25.30;88.20;;;;;;5012093;28;20449;-87
2021/08/12 08:51:47;;;;;;;7.20;5.35;;;25.30;88.30;;;;;;4995768;28;20037;-88
2021/08/12 08:54:13;;;;;;;9.50;5.10;;;25.50;89.90;;;;;;5005900;28;20131;-89
2021/08/12 08:56:40;;;;;;;5.38;4.88;;;25.90;89.50;;;;;;5011952;28;20042;-85
2021/08/12 08:59:09;;;;;;;8.55;4.65;;;25.90;87.30;;;;;;5009028;28;20442;-89
2021/08/12 09:01:38;;;;;;;6.03;4.97;;;26.20;85.90;;;;;;5002809;28;20263;-89
2021/08/12 09:04:04;;;;;;;5.78;4.82;;;26.60;83.80;;;;;;4994335;28;20108;-89
2021/08/12 09:06:29;;;;;;;7.32;5.40;;;27.10;82.00;;;;;;5006679;28;20120;-89
2021/08/12 09:08:55;;;;;;;6.30;4.88;;;27.00;84.80;;;;;;5000551;28;20026;-87
2021/08/12 09:11:25;;;;;;;7.15;5.07;;;26.90;82.40;;;;;;4996731;28;20124;-88
2021/08/12 09:13:51;;;;;;;8.65;4.57;;;27.20;82.60;;;;;;4996569;28;20095;-89
2021/08/12 09:16:35;;;;;;;6.10;4.97;;;27.60;80.00;;;;;;4997558;28;20073;-87
2021/08/12 09:19:19;;;;;;;7.20;5.07;;;27.50;83.00;;;;;;4982652;28;20057;-87
2021/08/12 09:21:45;;;;;;;5.93;4.53;;;27.80;82.80;;;;;;4996336;28;20093;-86
2021/08/12 09:24:11;;;;;;;7.90;5.28;;;27.80;79.10;;;;;;5003707;28;20080;-86
2021/08/12 09:26:40;;;;;;;7.20;5.10;;;27.90;80.80;;;;;;4995215;28;20029;-87
2021/08/12 09:29:06;;;;;;;10.98;6.57;;;28.20;77.00;;;;;;4993028;28;20037;-87
2021/08/12 09:31:32;;;;;;;7.93;4.78;;;28.70;79.10;;;;;;4996826;28;20551;-86
2021/08/12 09:33:57;;;;;;;11.98;5.60;;;28.40;77.60;;;;;;4995633;28;20034;-86
2021/08/12 09:36:27;;;;;;;5.95;4.40;;;28.30;79.70;;;;;;4994913;28;20037;-85
2021/08/12 09:39:13;;;;;;;5.70;4.10;;;28.40;78.10;;;;;;5006750;28;20336;-85
2021/08/12 09:41:51;;;;;;;6.35;5.32;;;28.50;79.70;;;;;;4990839;28;20397;-86
2021/08/12 09:44:40;;;;;;;9.63;5.05;;;28.90;78.90;;;;;;4993192;28;20052;-85
2021/08/12 09:47:09;;;;;;;9.75;6.35;;;29.10;77.40;;;;;;5025141;28;20474;-85
2021/08/12 09:49:43;;;;;;;7.68;6.20;;;29.10;77.30;;;;;;5008383;28;20042;-84
2021/08/12 09:52:37;;;;;;;10.40;6.25;;;29.20;76.80;;;;;;5002205;28;20273;-85
2021/08/12 09:55:06;;;;;;;6.43;4.38;;;29.40;76.00;;;;;;5006468;28;20038;-84
2021/08/12 09:57:47;;;;;;;8.27;4.65;;;29.30;75.30;;;;;;4994749;28;20056;-84
2021/08/12 10:00:26;;;;;;;9.50;6.30;;;29.60;74.90;;;;;;5021716;28;20440;-84
2021/08/12 10:02:52;;;;;;;6.78;5.22;;;29.70;74.00;;;;;;5005521;28;20032;-84
2021/08/12 10:05:17;;;;;;;6.78;4.43;;;29.60;74.90;;;;;;5001476;28;20269;-85
2021/08/12 10:07:50;;;;;;;9.77;5.80;;;29.80;75.00;;;;;;5007976;28;20441;-84
2021/08/12 10:10:22;;;;;;;6.97;5.05;;;29.60;74.30;;;;;;4992293;28;20126;-84
2021/08/12 10:12:52;;;;;;;7.93;5.78;;;30.00;74.20;;;;;;4993842;28;20029;-85
2021/08/12 10:15:18;;;;;;;7.20;5.47;;;30.10;73.70;;;;;;4993166;28;20109;-84
2021/08/12 10:17:44;;;;;;;9.68;7.95;;;30.10;74.00;;;;;;5005998;28;20168;-84
2021/08/12 10:20:17;;;;;;;7.70;5.40;;;30.30;72.60;;;;;;4977880;28;20119;-84
2021/08/12 10:22:43;;;;;;;6.97;4.45;;;30.20;71.70;;;;;;5010731;28;20072;-84
2021/08/12 10:25:09;;;;;;;6.60;4.80;;;30.20;73.00;;;;;;5003805;28;20044;-83
2021/08/12 10:27:35;;;;;;;10.18;5.93;;;30.50;72.70;;;;;;4992780;28;20037;-84
2021/08/12 10:30:00;;;;;;;7.00;5.15;;;30.40;71.70;;;;;;5004213;28;20033;-83
2021/08/12 10:32:26;;;;;;;5.43;4.90;;;30.30;72.30;;;;;;5008760;28;20029;-83
2021/08/12 10:34:51;;;;;;;6.18;4.93;;;30.70;72.00;;;;;;5006554;28;20112;-83
2021/08/12 10:37:17;;;;;;;6.97;4.78;;;30.80;71.00;;;;;;5012388;28;20527;-82
2021/08/12 10:39:42;;;;;;;7.13;5.07;;;31.00;70.50;;;;;;5001935;28;20044;-83
2021/08/12 10:42:08;;;;;;;7.55;5.30;;;31.00;70.80;;;;;;5008765;28;20041;-82
2021/08/12 10:44:34;;;;;;;9.10;5.13;;;31.00;70.70;;;;;;5011167;28;20161;-81
2021/08/12 10:47:00;;;;;;;6.72;4.60;;;31.20;69.30;;;;;;5012918;28;20050;-81
2021/08/12 10:49:33;;;;;;;5.57;4.55;;;31.10;69.70;;;;;;4995153;28;20564;-81
2021/08/12 10:52:09;;;;;;;6.50;4.40;;;31.80;66.80;;;;;;5008784;28;20052;-80
2021/08/12 10:54:36;;;;;;;7.82;4.90;;;31.70;68.00;;;;;;4989751;28;20044;-80
2021/08/12 10:57:13;;;;;;;5.45;4.32;;;31.50;67.20;;;;;;5003762;28;20116;-80
2021/08/12 10:59:40;;;;;;;7.35;4.57;;;31.60;68.70;;;;;;5008419;28;20033;-79
2021/08/12 11:02:28;;;;;;;6.88;5.13;;;31.90;67.00;;;;;;5015188;28;20123;-79
2021/08/12 11:05:00;;;;;;;5.65;4.50;;;32.00;66.80;;;;;;5023324;28;20030;-79
2021/08/12 11:07:38;;;;;;;6.00;4.60;;;32.10;65.40;;;;;;5010599;28;20041;-79
2021/08/12 11:10:05;;;;;;;4.95;3.92;;;32.40;64.70;;;;;;5030358;28;20121;-79
2021/08/12 11:12:52;;;;;;;4.72;3.47;;;32.20;65.10;;;;;;5025718;28;20060;-79
2021/08/12 11:15:38;;;;;;;6.13;3.65;;;32.70;61.20;;;;;;5022835;28;20561;-79
2021/08/12 11:18:04;;;;;;;;;;;32.50;62.80;;;;;;5013995;28;20061;-78
2021/08/12 11:20:32;;;;;;;5.72;3.90;;;32.30;62.70;;;;;;5030953;28;19951;-78
2021/08/12 11:23:12;;;;;;;5.72;3.78;;;32.50;61.60;;;;;;4997889;28;20379;-78
2021/08/12 11:26:00;;;;;;;6.38;3.85;;;33.00;58.20;;;;;;5012590;28;20049;-78
2021/08/12 11:28:41;;;;;;;6.82;3.95;;;32.80;57.50;;;;;;5020579;28;20037;-78
2021/08/12 11:31:23;;;;;;;6.97;3.58;;;32.70;57.80;;;;;;5018749;28;20211;-78
2021/08/12 11:33:54;;;;;;;3.53;3.20;;;32.30;61.30;;;;;;4318489;28;10001458;-77
2021/08/12 11:36:23;;;;;;;4.95;3.55;;;32.10;61.40;;;;;;5008040;28;20116;-78
2021/08/12 11:38:54;;;;;;;5.03;2.47;;;32.10;59.10;;;;;;4973883;28;20487;-78
2021/08/12 11:41:20;;;;;;;5.43;3.22;;;32.10;61.20;;;;;;4980122;28;20033;-79
2021/08/12 11:43:46;;;;;;;2.50;2.28;;;32.30;58.90;;;;;;5008968;28;20053;-77
2021/08/12 11:46:12;;;;;;;5.30;3.72;;;32.20;59.40;;;;;;4993316;28;20068;-78
2021/08/12 11:48:38;;;;;;;3.65;3.10;;;32.30;58.80;;;;;;4988298;28;20053;-78
2021/08/12 11:51:04;;;;;;;4.25;3.08;;;32.10;58.50;;;;;;5008132;28;20032;-79
2021/08/12 11:54:01;;;;;;;3.50;3.20;;;32.10;57.40;;;;;;5007762;28;20029;-78
2021/08/12 11:56:28;;;;;;;4.72;3.55;;;32.20;57.20;;;;;;4954295;28;20446;-79
2021/08/12 11:58:58;;;;;;;6.80;4.28;;;32.00;57.30;;;;;;4997261;28;20594;-78
2021/08/12 12:01:33;;;;;;;6.13;3.80;;;32.00;57.80;;;;;;5008998;28;20021;-78
2021/08/12 12:04:07;;;;;;;4.75;3.65;;;32.00;58.00;;;;;;4987719;28;20040;-78
2021/08/12 12:06:40;;;;;;;6.90;4.07;;;32.00;57.90;;;;;;4988309;28;20033;-78
2021/08/12 12:09:25;;;;;;;7.18;4.40;;;32.00;58.60;;;;;;5003410;28;20021;-78
2021/08/12 12:12:04;;;;;;;5.23;4.17;;;32.10;58.30;;;;;;4994735;28;20037;-78
2021/08/12 12:14:31;;;;;;;4.55;3.70;;;32.20;57.80;;;;;;4994512;28;20351;-78
2021/08/12 12:17:17;;;;;;;6.15;3.35;;;32.10;58.00;;;;;;5007516;28;20052;-77
2021/08/12 12:20:14;;;;;;;4.95;3.70;;;32.10;57.40;;;;;;5004809;28;20033;-78
2021/08/12 12:22:42;;;;;;;4.50;3.65;;;32.30;57.60;;;;;;5026556;28;20040;-78
2021/08/12 12:25:10;;;;;;;5.68;4.72;;;32.20;56.80;;;;;;5014218;28;20021;-78
2021/08/12 12:27:36;;;;;;;6.38;3.70;;;32.20;56.00;;;;;;4992766;28;20065;-78
2021/08/12 12:30:05;;;;;;;4.63;3.80;;;32.10;56.80;;;;;;4992224;28;20057;-78
2021/08/12 12:32:31;;;;;;;4.38;3.85;;;32.10;56.80;;;;;;5027968;28;20037;-79
2021/08/12 12:34:57;;;;;;;8.85;5.30;;;32.00;56.60;;;;;;5009539;28;20048;-78
2021/08/12 12:37:22;;;;;;;6.00;4.35;;;32.10;56.60;;;;;;4994828;28;20034;-78
2021/08/12 12:39:49;;;;;;;5.82;3.92;;;32.00;56.60;;;;;;5000693;28;20021;-78
2021/08/12 12:42:15;;;;;;;5.03;4.13;;;32.10;56.60;;;;;;4990045;28;20041;-79
2021/08/12 12:45:02;;;;;;;9.32;3.90;;;32.20;56.10;;;;;;5027871;28;20041;-78
2021/08/12 12:47:29;;;;;;;6.07;3.92;;;32.20;56.40;;;;;;5003260;28;20539;-77